Terminal Aerodrome Forecast
Issued by NWS

Home | Current Version | Previous Version | Text Only | Print | Product List | Glossary On
Versions: 1 2 3 4 5 6 7 8 9 10 11 12 13 14 15
945
FTUS46 KLOX 272358
TAFPMD
TAF
KPMD 272358Z 2800/2824 23022G30KT P6SM SKC
     FM280300 24015KT P6SM SKC
     FM280800 21008KT P6SM SKC
     FM281700 24012KT P6SM SKC
     FM281900 24017G25KT P6SM SKC
     FM282200 24022G30KT P6SM SKC=

USA.gov is the U.S. government's official web portal to all federal, state and local government web resources and services.